Time;durP1;ratioP1;P1;durP2;ratioP2;P2;SDS_P1;SDS_P2;PMS_P1;PMS_P2;Temp;Humidity;BMP_temperature;BMP_pressure;BME280_temperature;BME280_humidity;BME280_pressure;Samples;Min_cycle;Max_cycle;Signal;HPM_P1;HPM_P2
2023/09/24 00:00:26;;;;;;;2.20;1.60;;;19.60;90.80;;;;;;5074979;28;20025;-79
2023/09/24 00:02:52;;;;;;;2.05;1.60;;;19.60;90.80;;;;;;5075096;28;20025;-79
2023/09/24 00:05:17;;;;;;;3.00;1.63;;;19.60;90.80;;;;;;5073788;28;20046;-79
2023/09/24 00:07:43;;;;;;;2.65;1.55;;;19.50;90.80;;;;;;5073541;28;20025;-79
2023/09/24 00:10:09;;;;;;;2.00;1.52;;;19.60;90.90;;;;;;5074583;28;20025;-79
2023/09/24 00:12:34;;;;;;;1.70;1.50;;;19.60;90.90;;;;;;5073813;28;20423;-79
2023/09/24 00:15:00;;;;;;;2.92;1.60;;;19.60;90.90;;;;;;5074003;28;20388;-79
2023/09/24 00:17:25;;;;;;;2.05;1.50;;;19.50;90.90;;;;;;5073558;28;20028;-79
2023/09/24 00:19:51;;;;;;;2.35;1.63;;;19.50;91.00;;;;;;5074620;28;20476;-79
2023/09/24 00:22:17;;;;;;;1.73;1.40;;;19.50;90.90;;;;;;5074731;28;20154;-78
2023/09/24 00:24:43;;;;;;;1.83;1.50;;;19.50;90.90;;;;;;5073531;28;20078;-78
2023/09/24 00:27:09;;;;;;;2.08;1.42;;;19.50;91.00;;;;;;5073440;28;20431;-79
2023/09/24 00:29:35;;;;;;;2.10;1.55;;;19.50;91.00;;;;;;5074400;28;20080;-79
2023/09/24 00:32:00;;;;;;;2.25;1.60;;;19.50;91.00;;;;;;5073231;28;20077;-79
2023/09/24 00:34:26;;;;;;;2.95;1.60;;;19.50;91.00;;;;;;5073360;28;20091;-79
2023/09/24 00:36:51;;;;;;;2.20;1.50;;;19.50;91.00;;;;;;5073185;28;20119;-79
2023/09/24 00:39:17;;;;;;;2.10;1.60;;;19.50;91.00;;;;;;5073224;28;20081;-78
2023/09/24 00:41:45;;;;;;;1.92;1.50;;;19.50;91.00;;;;;;5074300;28;20024;-79
2023/09/24 00:44:14;;;;;;;3.00;1.80;;;19.50;91.00;;;;;;5073129;28;20021;-79
2023/09/24 00:46:42;;;;;;;2.42;1.60;;;19.50;91.00;;;;;;5073072;28;20025;-79
2023/09/24 00:49:07;;;;;;;2.45;1.52;;;19.50;91.00;;;;;;5072994;28;20020;-79
2023/09/24 00:51:33;;;;;;;2.55;1.75;;;19.50;91.00;;;;;;5072829;28;20021;-79
2023/09/24 00:53:59;;;;;;;2.10;1.35;;;19.60;90.90;;;;;;5074202;28;20035;-78
2023/09/24 00:56:26;;;;;;;2.20;1.50;;;19.60;90.90;;;;;;5072753;28;20392;-79
2023/09/24 00:58:52;;;;;;;2.20;1.52;;;19.70;90.90;;;;;;5072827;28;20027;-79
2023/09/24 01:01:24;;;;;;;2.20;1.38;;;19.60;90.90;;;;;;5072493;28;20028;-79
2023/09/24 01:03:50;;;;;;;2.20;1.25;;;19.60;90.90;;;;;;5072863;28;20481;-79
2023/09/24 01:06:17;;;;;;;2.15;1.45;;;19.50;90.90;;;;;;5073958;28;20074;-79
2023/09/24 01:08:43;;;;;;;2.88;1.70;;;19.50;90.90;;;;;;5072757;28;20396;-80
2023/09/24 01:11:09;;;;;;;1.98;1.52;;;19.50;90.90;;;;;;5073510;28;20032;-80
2023/09/24 01:13:40;;;;;;;2.03;1.40;;;19.50;91.00;;;;;;5072581;28;20028;-80
2023/09/24 01:16:07;;;;;;;2.22;1.50;;;19.50;91.00;;;;;;5072302;28;20029;-79
2023/09/24 01:18:37;;;;;;;1.67;1.40;;;19.50;91.00;;;;;;5073643;28;20059;-78
2023/09/24 01:21:15;;;;;;;2.20;1.50;;;19.50;91.00;;;;;;5072600;28;20017;-79
2023/09/24 01:23:42;;;;;;;3.03;1.55;;;19.50;91.00;;;;;;5072365;28;20073;-79
2023/09/24 01:26:09;;;;;;;2.17;1.70;;;19.40;91.00;;;;;;5072235;28;20507;-79
2023/09/24 01:28:35;;;;;;;2.03;1.48;;;19.50;91.00;;;;;;5073540;28;20396;-79
2023/09/24 01:31:01;;;;;;;3.08;1.40;;;19.50;91.00;;;;;;5073110;28;20032;-79
2023/09/24 01:33:27;;;;;;;2.22;1.52;;;19.50;91.00;;;;;;5072116;28;20028;-79
2023/09/24 01:35:52;;;;;;;2.85;1.60;;;19.50;91.00;;;;;;5072057;28;20036;-79
2023/09/24 01:38:19;;;;;;;2.40;1.60;;;19.40;91.00;;;;;;5072074;28;20043;-79
2023/09/24 01:40:45;;;;;;;2.17;1.60;;;19.50;91.10;;;;;;5072008;28;20020;-79
2023/09/24 01:43:13;;;;;;;2.58;1.50;;;19.50;91.10;;;;;;5073260;28;20606;-79
2023/09/24 01:45:39;;;;;;;2.15;1.42;;;19.50;91.00;;;;;;5073100;28;20622;-79
2023/09/24 01:48:09;;;;;;;2.20;1.50;;;19.50;91.00;;;;;;5071941;28;20031;-79
2023/09/24 01:50:36;;;;;;;2.30;1.50;;;19.50;91.00;;;;;;5071550;28;20507;-79
2023/09/24 01:53:03;;;;;;;2.72;1.85;;;19.50;91.00;;;;;;5073034;28;20056;-79
2023/09/24 01:55:29;;;;;;;2.95;1.60;;;19.50;90.90;;;;;;5073256;28;20021;-79
2023/09/24 01:57:55;;;;;;;2.78;1.65;;;19.50;90.90;;;;;;5072946;28;20028;-79
2023/09/24 02:00:23;;;;;;;3.28;1.80;;;19.50;90.90;;;;;;5071421;28;20024;-78
2023/09/24 02:02:54;;;;;;;2.13;1.60;;;19.50;90.90;;;;;;5071689;28;20073;-79
2023/09/24 02:05:19;;;;;;;2.75;1.58;;;19.50;90.90;;;;;;5072941;28;20020;-79
2023/09/24 02:07:49;;;;;;;2.63;1.73;;;19.50;90.90;;;;;;5071796;28;20032;-79
2023/09/24 02:10:18;;;;;;;1.98;1.48;;;19.50;91.00;;;;;;5071311;28;20021;-79
2023/09/24 02:12:45;;;;;;;2.72;1.50;;;19.40;91.00;;;;;;5073034;28;20020;-79
2023/09/24 02:15:12;;;;;;;2.60;1.60;;;19.50;91.00;;;;;;5071488;28;20103;-79
2023/09/24 02:17:41;;;;;;;1.92;1.50;;;19.40;91.00;;;;;;5071414;28;20028;-79
2023/09/24 02:20:25;;;;;;;2.15;1.60;;;19.40;91.00;;;;;;5071178;28;20044;-78
2023/09/24 02:22:53;;;;;;;2.35;1.38;;;19.50;91.00;;;;;;5071615;28;20401;-79
2023/09/24 02:25:20;;;;;;;2.70;1.60;;;19.40;91.00;;;;;;5072622;28;20072;-78
2023/09/24 02:27:46;;;;;;;2.05;1.60;;;19.40;91.00;;;;;;5072693;28;20029;-78
2023/09/24 02:30:13;;;;;;;2.30;1.60;;;19.40;91.00;;;;;;5071022;28;20055;-78
2023/09/24 02:32:42;;;;;;;1.92;1.60;;;19.40;91.00;;;;;;5071168;28;20492;-78
2023/09/24 02:35:09;;;;;;;2.45;1.67;;;19.40;91.00;;;;;;5071229;28;20056;-79
2023/09/24 02:37:35;;;;;;;2.33;1.60;;;19.40;91.00;;;;;;5071291;28;20488;-79
2023/09/24 02:40:05;;;;;;;1.85;1.42;;;19.40;91.10;;;;;;5071036;28;20476;-79
2023/09/24 02:42:31;;;;;;;2.67;1.80;;;19.40;91.10;;;;;;5071483;28;20617;-78
2023/09/24 02:44:57;;;;;;;1.42;1.33;;;19.50;91.10;;;;;;5072312;28;20024;-78
2023/09/24 02:47:22;;;;;;;2.85;1.48;;;19.40;91.00;;;;;;5071202;28;20508;-79
2023/09/24 02:49:48;;;;;;;2.25;1.40;;;19.60;91.10;;;;;;5070987;28;20027;-79
2023/09/24 02:52:14;;;;;;;2.30;1.60;;;19.40;91.00;;;;;;5071290;28;20558;-79
2023/09/24 02:54:40;;;;;;;1.88;1.63;;;19.50;91.00;;;;;;5083606;28;20036;-79
2023/09/24 02:57:05;;;;;;;2.40;1.60;;;19.50;90.90;;;;;;5091089;28;20089;-79
2023/09/24 02:59:31;;;;;;;2.42;1.50;;;19.50;90.90;;;;;;5090986;28;20403;-78
2023/09/24 03:01:57;;;;;;;2.53;1.50;;;19.60;90.90;;;;;;5091241;28;20027;-79
2023/09/24 03:04:23;;;;;;;2.08;1.60;;;19.50;90.90;;;;;;5091511;28;20017;-79
2023/09/24 03:06:48;;;;;;;2.90;1.50;;;19.40;90.90;;;;;;5091247;28;20020;-79
2023/09/24 03:09:14;;;;;;;1.95;1.45;;;19.40;90.90;;;;;;5091458;28;20103;-79
2023/09/24 03:11:40;;;;;;;2.63;1.77;;;19.40;91.00;;;;;;5090903;28;20024;-79
2023/09/24 03:14:06;;;;;;;2.42;1.63;;;19.40;91.00;;;;;;5091192;28;20127;-79
2023/09/24 03:16:32;;;;;;;1.90;1.50;;;19.40;91.00;;;;;;5092245;28;20024;-79
2023/09/24 03:18:58;;;;;;;2.00;1.50;;;19.40;91.10;;;;;;5091167;28;20201;-79
2023/09/24 03:21:24;;;;;;;2.60;1.60;;;19.40;91.00;;;;;;5090778;28;20020;-78
2023/09/24 03:23:49;;;;;;;2.13;1.50;;;19.40;91.10;;;;;;5091103;28;20536;-79
2023/09/24 03:26:16;;;;;;;3.00;1.70;;;19.40;91.00;;;;;;5092274;28;20103;-78
2023/09/24 03:28:41;;;;;;;3.85;1.60;;;19.40;91.00;;;;;;5091180;28;20085;-79
2023/09/24 03:31:13;;;;;;;2.00;1.52;;;19.40;91.10;;;;;;5090808;28;20476;-79
2023/09/24 03:33:38;;;;;;;1.95;1.50;;;19.40;91.10;;;;;;5092124;28;20099;-79
2023/09/24 03:36:07;;;;;;;1.80;1.40;;;19.40;91.10;;;;;;5092116;28;20131;-78
2023/09/24 03:38:33;;;;;;;1.80;1.50;;;19.40;91.10;;;;;;5091983;28;20104;-78
2023/09/24 03:40:58;;;;;;;2.00;1.52;;;19.40;91.10;;;;;;5090589;28;20111;-79
2023/09/24 03:43:24;;;;;;;1.58;1.30;;;19.40;91.10;;;;;;5091699;28;20031;-78
2023/09/24 03:45:49;;;;;;;1.90;1.50;;;19.40;91.10;;;;;;5095795;28;20028;-79
2023/09/24 03:48:15;;;;;;;2.45;1.60;;;19.40;91.10;;;;;;5094460;28;20078;-79
2023/09/24 03:50:40;;;;;;;2.13;1.60;;;19.40;91.00;;;;;;5094113;28;20024;-79
2023/09/24 03:53:06;;;;;;;2.72;1.60;;;19.50;91.00;;;;;;5095702;28;20032;-79
2023/09/24 03:55:32;;;;;;;2.28;1.67;;;19.40;91.00;;;;;;5094268;28;20032;-79
2023/09/24 03:57:58;;;;;;;2.10;1.50;;;19.40;90.90;;;;;;5094236;28;20020;-79
2023/09/24 04:00:25;;;;;;;2.20;1.58;;;19.30;90.90;;;;;;5094040;28;20032;-79
2023/09/24 04:02:51;;;;;;;2.25;1.50;;;19.40;90.90;;;;;;5094207;28;20020;-79
2023/09/24 04:05:19;;;;;;;1.98;1.58;;;19.40;90.90;;;;;;5094247;28;20035;-79
2023/09/24 04:07:46;;;;;;;2.08;1.50;;;19.50;91.00;;;;;;5095358;28;20031;-78
2023/09/24 04:10:14;;;;;;;2.40;1.70;;;19.40;91.00;;;;;;5093854;28;20369;-79
2023/09/24 04:12:41;;;;;;;2.22;1.42;;;19.40;91.00;;;;;;5093942;28;20020;-79
2023/09/24 04:15:07;;;;;;;2.22;1.60;;;19.40;91.00;;;;;;5093979;28;20032;-79
2023/09/24 04:17:33;;;;;;;1.77;1.60;;;19.40;91.10;;;;;;5093855;28;20028;-79
2023/09/24 04:19:58;;;;;;;2.85;1.63;;;19.40;91.00;;;;;;5093594;28;20024;-79
2023/09/24 04:22:24;;;;;;;2.50;1.60;;;19.40;91.00;;;;;;5093789;28;20050;-79
2023/09/24 04:24:51;;;;;;;1.95;1.48;;;19.30;91.00;;;;;;5093722;28;20035;-79
2023/09/24 04:27:16;;;;;;;2.50;1.52;;;19.30;91.00;;;;;;5093738;28;20036;-79
2023/09/24 04:29:42;;;;;;;2.92;1.80;;;19.40;91.10;;;;;;5093356;28;20024;-78
2023/09/24 04:32:08;;;;;;;2.38;1.70;;;19.30;91.10;;;;;;5093717;28;20024;-79
2023/09/24 04:34:35;;;;;;;3.38;1.67;;;19.30;91.00;;;;;;5093539;28;20058;-79
2023/09/24 04:37:00;;;;;;;2.38;1.60;;;19.40;91.10;;;;;;5093423;28;20031;-78
2023/09/24 04:39:26;;;;;;;2.40;1.70;;;19.40;91.10;;;;;;5093386;28;20024;-79
2023/09/24 04:41:51;;;;;;;1.98;1.50;;;19.40;91.10;;;;;;5093600;28;20384;-79
2023/09/24 04:44:17;;;;;;;2.00;1.50;;;19.40;91.10;;;;;;5093654;28;20031;-80
2023/09/24 04:46:42;;;;;;;3.45;1.50;;;19.40;91.10;;;;;;5094707;28;20020;-79
2023/09/24 04:49:08;;;;;;;1.92;1.50;;;19.40;91.10;;;;;;5094556;28;20455;-79
2023/09/24 04:51:34;;;;;;;2.33;1.45;;;19.40;91.00;;;;;;5093026;28;20484;-79
2023/09/24 04:54:03;;;;;;;2.58;1.63;;;19.40;91.00;;;;;;5090954;28;20035;-79
2023/09/24 04:56:29;;;;;;;3.47;1.52;;;19.40;90.90;;;;;;5088889;28;20032;-79
2023/09/24 04:58:55;;;;;;;2.13;1.50;;;19.40;90.90;;;;;;5084027;28;20026;-79
2023/09/24 05:01:20;;;;;;;2.10;1.50;;;19.40;90.90;;;;;;5092876;28;20089;-79
2023/09/24 05:03:49;;;;;;;2.28;1.70;;;19.40;90.90;;;;;;5092966;28;20024;-79
2023/09/24 05:06:15;;;;;;;2.40;1.55;;;19.40;91.00;;;;;;5093019;28;20035;-79
2023/09/24 05:08:41;;;;;;;2.05;1.60;;;19.40;91.00;;;;;;5092974;28;20488;-79
2023/09/24 05:11:10;;;;;;;2.17;1.50;;;19.40;91.00;;;;;;5093783;28;20032;-79
2023/09/24 05:13:35;;;;;;;2.13;1.52;;;19.40;91.10;;;;;;5092960;28;20070;-79
2023/09/24 05:16:01;;;;;;;2.28;1.50;;;19.30;91.00;;;;;;5094000;28;20059;-79
2023/09/24 05:18:27;;;;;;;2.47;1.63;;;19.30;91.00;;;;;;5094150;28;20016;-80
2023/09/24 05:20:54;;;;;;;1.98;1.52;;;19.30;91.10;;;;;;5093772;28;20039;-80
2023/09/24 05:23:23;;;;;;;2.45;1.80;;;19.30;91.10;;;;;;5092746;28;20113;-79
2023/09/24 05:25:50;;;;;;;2.00;1.42;;;19.30;91.10;;;;;;5092707;28;20055;-80
2023/09/24 05:28:16;;;;;;;2.85;1.60;;;19.30;91.10;;;;;;5093858;28;20032;-79
2023/09/24 05:30:42;;;;;;;1.90;1.40;;;19.30;91.10;;;;;;5092195;28;20031;-78
2023/09/24 05:33:08;;;;;;;2.50;1.60;;;19.30;91.10;;;;;;5092639;28;20137;-79
2023/09/24 05:35:34;;;;;;;2.22;1.65;;;19.30;91.10;;;;;;5092208;28;20032;-79
2023/09/24 05:37:59;;;;;;;2.13;1.60;;;19.30;91.10;;;;;;5093711;28;20095;-79
2023/09/24 05:40:25;;;;;;;2.22;1.50;;;19.30;91.10;;;;;;5092139;28;20031;-80
2023/09/24 05:42:50;;;;;;;2.22;1.58;;;19.40;91.10;;;;;;5092432;28;20016;-79
2023/09/24 05:45:16;;;;;;;2.38;1.60;;;19.30;91.10;;;;;;5092449;28;20067;-79
2023/09/24 05:47:42;;;;;;;2.17;1.67;;;19.30;91.10;;;;;;5093557;28;20388;-79
2023/09/24 05:50:08;;;;;;;2.47;1.73;;;19.40;91.00;;;;;;5091927;28;20020;-79
2023/09/24 05:52:33;;;;;;;2.10;1.60;;;19.40;91.00;;;;;;5092106;28;20395;-79
2023/09/24 05:54:59;;;;;;;2.53;1.67;;;19.40;91.00;;;;;;5092197;28;20016;-79
2023/09/24 05:57:28;;;;;;;2.13;1.60;;;19.40;90.90;;;;;;5092104;28;20032;-81
2023/09/24 05:59:54;;;;;;;3.38;1.80;;;19.40;90.90;;;;;;5091867;28;20024;-79
2023/09/24 06:02:24;;;;;;;3.13;1.60;;;19.40;90.90;;;;;;5092049;28;20024;-79
2023/09/24 06:04:50;;;;;;;2.78;1.80;;;19.40;90.90;;;;;;5092013;28;20020;-79
2023/09/24 06:07:16;;;;;;;1.70;1.40;;;19.40;90.90;;;;;;5091430;28;20452;-79
2023/09/24 06:09:41;;;;;;;2.47;1.73;;;19.40;91.00;;;;;;5091569;28;20537;-78
2023/09/24 06:12:07;;;;;;;2.58;1.70;;;19.40;90.90;;;;;;5091824;28;20027;-80
2023/09/24 06:14:33;;;;;;;1.70;1.45;;;19.40;90.90;;;;;;5091801;28;20069;-79
2023/09/24 06:16:59;;;;;;;1.85;1.48;;;19.40;90.90;;;;;;5091665;28;20062;-79
2023/09/24 06:19:24;;;;;;;2.58;1.65;;;19.40;90.90;;;;;;5091561;28;20433;-77
2023/09/24 06:21:50;;;;;;;3.53;1.80;;;19.40;90.90;;;;;;5091120;28;20420;-79
2023/09/24 06:24:16;;;;;;;2.88;1.75;;;19.40;90.90;;;;;;5088872;28;20024;-77
2023/09/24 06:26:42;;;;;;;2.42;1.80;;;19.40;90.80;;;;;;5088283;28;20031;-80
2023/09/24 06:29:08;;;;;;;2.28;1.52;;;19.50;90.80;;;;;;5087662;28;20865;-76
2023/09/24 06:31:34;;;;;;;4.03;2.00;;;19.40;90.70;;;;;;5083962;28;20496;-77
2023/09/24 06:34:00;;;;;;;2.47;1.60;;;19.40;90.70;;;;;;5087022;28;20051;-77
2023/09/24 06:36:26;;;;;;;3.72;1.90;;;19.50;90.80;;;;;;5086964;28;20080;-77
2023/09/24 06:38:51;;;;;;;2.22;1.65;;;19.50;90.70;;;;;;5086993;28;20028;-77
2023/09/24 06:41:17;;;;;;;3.13;1.83;;;19.50;90.60;;;;;;5087842;28;20082;-78
2023/09/24 06:43:42;;;;;;;2.35;1.60;;;19.60;90.60;;;;;;5087280;28;20020;-77
2023/09/24 06:46:08;;;;;;;3.47;2.05;;;19.60;90.50;;;;;;5088163;28;20072;-77
2023/09/24 06:48:34;;;;;;;3.15;1.90;;;19.70;90.60;;;;;;5088624;28;20538;-76
2023/09/24 06:51:09;;;;;;;2.95;1.92;;;19.70;90.50;;;;;;5086613;28;20028;-77
2023/09/24 06:53:37;;;;;;;2.67;1.80;;;19.70;90.30;;;;;;5088095;28;20028;-77
2023/09/24 06:56:09;;;;;;;2.70;1.92;;;19.70;90.20;;;;;;5086895;28;20118;-77
2023/09/24 06:58:35;;;;;;;3.83;1.85;;;19.80;90.30;;;;;;5086832;28;20031;-77
2023/09/24 07:01:03;;;;;;;3.08;1.90;;;19.80;90.20;;;;;;5086428;28;20031;-76
2023/09/24 07:03:29;;;;;;;2.78;1.60;;;19.80;90.20;;;;;;5086724;28;20042;-77
2023/09/24 07:05:55;;;;;;;3.33;1.90;;;19.80;90.20;;;;;;5086355;28;20028;-77
2023/09/24 07:08:20;;;;;;;3.13;1.90;;;19.80;90.20;;;;;;5086069;28;20030;-77
2023/09/24 07:11:07;;;;;;;2.63;1.70;;;19.80;90.10;;;;;;5085568;28;20465;-76
2023/09/24 07:13:32;;;;;;;3.53;2.00;;;19.80;90.10;;;;;;5085910;28;20028;-76
2023/09/24 07:15:58;;;;;;;3.22;1.88;;;19.80;90.00;;;;;;5085583;28;20034;-76
2023/09/24 07:18:23;;;;;;;3.80;2.05;;;19.80;90.00;;;;;;5089141;28;20024;-78
2023/09/24 07:20:49;;;;;;;3.58;2.10;;;19.80;90.00;;;;;;5091808;28;20020;-77
2023/09/24 07:23:14;;;;;;;3.13;1.90;;;19.90;89.90;;;;;;5091771;28;20114;-78
2023/09/24 07:25:40;;;;;;;2.97;1.77;;;19.90;90.00;;;;;;5091531;28;20480;-76
2023/09/24 07:28:05;;;;;;;3.53;1.80;;;19.90;89.90;;;;;;5093253;28;20032;-78
2023/09/24 07:30:33;;;;;;;3.55;1.95;;;20.10;89.90;;;;;;5089686;28;20028;-75
2023/09/24 07:32:58;;;;;;;3.20;2.17;;;20.00;89.80;;;;;;5089792;28;20024;-77
2023/09/24 07:35:24;;;;;;;3.08;1.95;;;20.00;89.80;;;;;;5088701;28;20077;-77
2023/09/24 07:37:49;;;;;;;2.95;2.00;;;20.00;89.80;;;;;;5089010;28;20028;-76
2023/09/24 07:40:16;;;;;;;3.53;2.03;;;20.00;89.60;;;;;;5087329;28;20035;-76
2023/09/24 07:42:42;;;;;;;3.20;1.92;;;20.10;89.50;;;;;;5090655;28;20022;-76
2023/09/24 07:45:08;;;;;;;3.67;2.13;;;20.10;89.40;;;;;;5089235;28;20102;-77
2023/09/24 07:47:33;;;;;;;3.17;1.98;;;20.20;89.20;;;;;;5089735;28;20461;-76
2023/09/24 07:49:59;;;;;;;3.65;2.25;;;20.20;89.10;;;;;;5089150;28;20128;-76
2023/09/24 07:52:24;;;;;;;2.83;1.85;;;20.30;89.00;;;;;;5089462;28;20039;-78
2023/09/24 07:54:50;;;;;;;4.38;2.50;;;20.30;88.80;;;;;;5090386;28;20032;-77
2023/09/24 07:57:15;;;;;;;3.95;2.10;;;20.30;88.70;;;;;;5090236;28;20028;-77
2023/09/24 07:59:41;;;;;;;4.45;2.30;;;20.30;88.70;;;;;;5091001;28;20028;-78
2023/09/24 08:02:07;;;;;;;4.15;2.38;;;20.30;88.60;;;;;;5089539;28;20028;-77
2023/09/24 08:04:32;;;;;;;3.33;2.28;;;20.30;88.50;;;;;;5091094;28;20035;-77
2023/09/24 08:06:58;;;;;;;3.53;2.10;;;20.30;88.50;;;;;;5091387;28;20135;-77
2023/09/24 08:09:23;;;;;;;4.22;2.40;;;20.40;88.50;;;;;;5091473;28;20020;-75
2023/09/24 08:11:49;;;;;;;3.70;2.42;;;20.40;89.00;;;;;;5090357;28;20114;-78
2023/09/24 08:14:14;;;;;;;5.60;2.83;;;20.40;88.40;;;;;;5090005;28;20565;-77
2023/09/24 08:16:41;;;;;;;5.47;2.60;;;20.40;88.40;;;;;;5089450;28;20024;-78
2023/09/24 08:19:06;;;;;;;4.70;2.60;;;20.40;88.40;;;;;;5090223;28;20035;-77
2023/09/24 08:21:32;;;;;;;4.53;2.50;;;20.40;88.30;;;;;;5089965;28;20517;-76
2023/09/24 08:23:57;;;;;;;4.15;2.40;;;20.50;88.20;;;;;;5091134;28;20085;-77
2023/09/24 08:26:23;;;;;;;4.63;2.70;;;20.50;88.20;;;;;;5084366;28;20043;-77
2023/09/24 08:28:48;;;;;;;4.95;2.55;;;20.50;88.20;;;;;;5088998;28;20104;-77
2023/09/24 08:31:14;;;;;;;4.35;2.42;;;20.60;88.20;;;;;;5090525;28;20082;-78
2023/09/24 08:33:40;;;;;;;4.57;2.67;;;20.50;88.10;;;;;;5089682;28;20026;-76
2023/09/24 08:36:09;;;;;;;3.95;2.40;;;20.50;88.20;;;;;;5089293;28;20053;-77
2023/09/24 08:38:35;;;;;;;4.03;2.50;;;20.60;88.00;;;;;;5089817;28;20016;-77
2023/09/24 08:41:00;;;;;;;4.63;2.70;;;20.60;87.80;;;;;;5088679;28;20480;-76
2023/09/24 08:43:29;;;;;;;4.40;2.50;;;20.60;87.60;;;;;;5089115;28;20162;-75
2023/09/24 08:45:55;;;;;;;4.38;2.50;;;20.70;87.60;;;;;;5089565;28;20050;-79
2023/09/24 08:48:21;;;;;;;3.55;2.33;;;20.70;87.40;;;;;;5091009;28;20575;-78
2023/09/24 08:50:47;;;;;;;4.68;2.22;;;20.80;87.40;;;;;;5090868;28;20039;-78
2023/09/24 08:53:16;;;;;;;3.97;2.42;;;20.80;87.30;;;;;;5090453;28;20024;-77
2023/09/24 08:55:45;;;;;;;4.45;2.30;;;20.80;87.30;;;;;;5089919;28;20020;-78
2023/09/24 08:58:11;;;;;;;4.50;2.45;;;20.80;87.30;;;;;;5092983;28;20028;-77
2023/09/24 09:00:38;;;;;;;4.65;2.65;;;20.80;87.40;;;;;;5078091;28;20051;-78
2023/09/24 09:03:04;;;;;;;4.82;2.50;;;20.70;87.40;;;;;;5072599;28;20027;-77
2023/09/24 09:05:34;;;;;;;4.88;2.22;;;20.80;87.50;;;;;;5073872;28;20028;-77
2023/09/24 09:08:04;;;;;;;5.15;2.60;;;20.80;87.50;;;;;;5072687;28;20111;-77
2023/09/24 09:10:30;;;;;;;3.92;2.38;;;20.80;87.50;;;;;;5072252;28;20041;-77
2023/09/24 09:13:19;;;;;;;4.47;2.35;;;20.80;87.50;;;;;;5072499;28;20112;-77
2023/09/24 09:15:46;;;;;;;4.00;2.20;;;20.80;87.50;;;;;;5072561;28;20560;-77
2023/09/24 09:18:25;;;;;;;3.65;2.20;;;20.80;87.40;;;;;;5072559;28;20021;-77
2023/09/24 09:20:59;;;;;;;4.57;2.47;;;20.80;87.50;;;;;;5073335;28;20027;-77
2023/09/24 09:23:36;;;;;;;3.75;2.28;;;20.80;87.50;;;;;;5073612;28;20630;-77
2023/09/24 09:26:03;;;;;;;4.65;2.10;;;20.90;87.50;;;;;;5072281;28;20118;-78
2023/09/24 09:28:31;;;;;;;3.83;2.20;;;20.90;87.40;;;;;;5072310;28;20060;-77
2023/09/24 09:31:01;;;;;;;3.97;2.15;;;20.90;87.40;;;;;;5073261;28;20107;-76
2023/09/24 09:33:29;;;;;;;4.50;2.40;;;20.90;87.40;;;;;;5073497;28;20035;-78
2023/09/24 09:35:55;;;;;;;3.83;2.30;;;20.90;87.20;;;;;;5071941;28;20032;-77
2023/09/24 09:38:21;;;;;;;3.28;2.05;;;20.90;87.10;;;;;;5072083;28;20024;-76
2023/09/24 09:40:56;;;;;;;3.03;1.90;;;21.00;87.20;;;;;;5071347;28;20373;-77
2023/09/24 09:43:23;;;;;;;3.53;2.10;;;21.00;87.30;;;;;;5072010;28;20024;-77
2023/09/24 09:45:52;;;;;;;4.50;2.03;;;21.00;87.30;;;;;;5073032;28;20035;-77
2023/09/24 09:48:21;;;;;;;4.00;2.05;;;21.00;87.40;;;;;;5071970;28;20033;-77
2023/09/24 09:50:47;;;;;;;3.58;2.05;;;21.00;87.40;;;;;;5071536;28;20033;-77
2023/09/24 09:53:21;;;;;;;2.92;1.80;;;21.00;87.40;;;;;;5071832;28;20020;-77
2023/09/24 09:55:48;;;;;;;3.78;2.20;;;21.00;87.50;;;;;;5071791;28;20020;-77
2023/09/24 09:58:14;;;;;;;3.65;2.00;;;21.00;87.60;;;;;;5071826;28;20025;-77
2023/09/24 10:00:40;;;;;;;3.28;1.92;;;21.00;87.60;;;;;;5071382;28;20559;-77
2023/09/24 10:03:06;;;;;;;2.70;1.70;;;20.90;87.60;;;;;;5071584;28;20090;-77
2023/09/24 10:05:33;;;;;;;3.13;1.75;;;20.90;87.70;;;;;;5071565;28;20071;-78
2023/09/24 10:07:58;;;;;;;3.38;1.83;;;20.90;87.80;;;;;;5072809;28;20024;-78
2023/09/24 10:10:30;;;;;;;2.67;1.73;;;20.90;88.40;;;;;;5071338;28;20028;-78
2023/09/24 10:12:56;;;;;;;3.75;2.10;;;20.90;87.90;;;;;;5072838;28;20391;-77
2023/09/24 10:15:30;;;;;;;2.65;1.60;;;20.90;88.00;;;;;;5071494;28;20115;-78
2023/09/24 10:18:19;;;;;;;3.50;1.92;;;20.90;88.00;;;;;;5071321;28;20029;-77
2023/09/24 10:20:53;;;;;;;2.47;1.60;;;20.90;88.10;;;;;;5065681;28;20028;-77
2023/09/24 10:23:36;;;;;;;3.80;2.08;;;20.90;88.10;;;;;;5071350;28;20066;-77
2023/09/24 10:26:05;;;;;;;2.40;1.48;;;20.90;88.10;;;;;;5072657;28;20024;-78
2023/09/24 10:28:48;;;;;;;3.20;1.80;;;20.90;88.10;;;;;;5072496;28;20035;-77
2023/09/24 10:31:13;;;;;;;2.58;1.60;;;20.90;88.20;;;;;;5072307;28;20024;-77
2023/09/24 10:33:56;;;;;;;2.88;1.73;;;20.90;88.10;;;;;;5071321;28;20030;-77
2023/09/24 10:36:30;;;;;;;3.35;1.70;;;20.90;88.10;;;;;;5071145;28;20032;-78
2023/09/24 10:39:11;;;;;;;2.65;1.40;;;20.90;88.10;;;;;;5071357;28;20024;-77
2023/09/24 10:42:08;;;;;;;2.95;1.63;;;20.90;87.90;;;;;;5072140;28;20016;-77
2023/09/24 10:44:35;;;;;;;2.70;1.58;;;21.00;87.90;;;;;;5072335;28;20106;-77
2023/09/24 10:47:23;;;;;;;2.25;1.45;;;21.00;87.80;;;;;;5071273;28;20629;-77
2023/09/24 10:49:49;;;;;;;2.83;1.70;;;21.00;87.70;;;;;;5070972;28;20477;-77
2023/09/24 10:52:15;;;;;;;2.42;1.60;;;21.00;87.80;;;;;;5071743;28;20031;-77
2023/09/24 10:54:41;;;;;;;2.20;1.48;;;21.00;87.80;;;;;;5075307;28;20025;-77
2023/09/24 10:57:07;;;;;;;3.10;1.60;;;20.90;87.90;;;;;;5076409;28;20056;-77
2023/09/24 10:59:34;;;;;;;2.42;1.50;;;20.90;87.90;;;;;;5074949;28;20048;-77
2023/09/24 11:02:20;;;;;;;2.35;1.38;;;20.90;88.00;;;;;;5074965;28;20036;-77
2023/09/24 11:04:45;;;;;;;3.38;1.50;;;20.90;88.10;;;;;;5074791;28;20082;-78
2023/09/24 11:07:12;;;;;;;2.63;1.38;;;20.90;88.10;;;;;;5074991;28;20029;-77
2023/09/24 11:09:37;;;;;;;2.47;1.48;;;20.90;88.10;;;;;;5074745;28;20112;-77
2023/09/24 11:12:09;;;;;;;3.10;1.50;;;20.90;88.10;;;;;;5076059;28;20112;-77
2023/09/24 11:14:35;;;;;;;2.28;1.40;;;20.90;88.20;;;;;;5074695;28;20064;-77
2023/09/24 11:17:01;;;;;;;2.42;1.52;;;20.80;88.20;;;;;;5075879;28;20063;-77
2023/09/24 11:19:43;;;;;;;1.95;1.33;;;20.80;88.20;;;;;;5075780;28;20100;-76
2023/09/24 11:22:20;;;;;;;2.78;1.60;;;20.80;88.20;;;;;;5074726;28;20111;-77
2023/09/24 11:25:05;;;;;;;2.65;1.50;;;20.90;88.30;;;;;;5074690;28;20021;-76
2023/09/24 11:27:51;;;;;;;2.50;1.42;;;20.80;88.30;;;;;;5074606;28;20662;-77
2023/09/24 11:30:18;;;;;;;1.90;1.30;;;20.80;88.30;;;;;;5074362;28;20030;-78
2023/09/24 11:32:46;;;;;;;1.85;1.23;;;20.80;88.30;;;;;;5074505;28;20115;-77
2023/09/24 11:35:14;;;;;;;2.90;1.50;;;20.80;88.20;;;;;;5074248;28;20081;-77
2023/09/24 11:37:54;;;;;;;2.95;1.25;;;20.80;88.20;;;;;;5074378;28;20028;-78
2023/09/24 11:40:23;;;;;;;3.38;1.65;;;20.90;88.20;;;;;;5075360;28;20024;-77
2023/09/24 11:42:56;;;;;;;3.53;1.33;;;20.90;88.10;;;;;;5074331;28;20021;-77
2023/09/24 11:45:42;;;;;;;2.90;1.40;;;20.90;88.00;;;;;;5073917;28;20023;-75
2023/09/24 11:48:13;;;;;;;2.33;1.45;;;20.90;88.00;;;;;;5072923;28;20047;-76
2023/09/24 11:50:40;;;;;;;;;;;20.90;88.00;;;;;;5074261;28;20029;-77
2023/09/24 11:53:06;;;;;;;2.47;1.30;;;20.90;88.10;;;;;;5073584;28;20387;-77
2023/09/24 11:55:32;;;;;;;3.10;1.40;;;20.80;88.10;;;;;;5074121;28;20036;-76
2023/09/24 11:57:58;;;;;;;16.02;1.92;;;20.80;87.80;;;;;;5073975;28;20025;-78
2023/09/24 12:00:24;;;;;;;14.35;2.90;;;20.80;86.20;;;;;;5073742;28;20025;-77
2023/09/24 12:02:49;;;;;;;16.58;1.90;;;20.70;86.40;;;;;;5073230;28;20017;-77
2023/09/24 12:05:15;;;;;;;15.00;2.53;;;20.70;85.60;;;;;;5072857;28;20082;-77
2023/09/24 12:07:42;;;;;;;9.23;1.73;;;20.70;85.90;;;;;;5075160;28;20396;-77
2023/09/24 12:10:08;;;;;;;10.25;1.98;;;20.70;85.90;;;;;;5073479;28;20028;-77
2023/09/24 12:12:33;;;;;;;10.85;1.70;;;20.70;85.90;;;;;;5073834;28;20024;-79
2023/09/24 12:15:00;;;;;;;10.98;1.85;;;20.70;86.00;;;;;;5073575;28;20024;-78
2023/09/24 12:17:25;;;;;;;9.73;1.75;;;20.70;86.30;;;;;;5073711;28;20081;-77
2023/09/24 12:19:52;;;;;;;10.45;1.83;;;20.70;86.30;;;;;;5073424;28;20062;-78
2023/09/24 12:22:18;;;;;;;6.38;1.85;;;20.60;86.40;;;;;;5074945;28;20023;-77
2023/09/24 12:24:44;;;;;;;10.32;1.85;;;20.60;86.50;;;;;;5074950;28;20107;-78
2023/09/24 12:27:09;;;;;;;8.77;1.98;;;20.60;86.60;;;;;;5073352;28;20121;-77
2023/09/24 12:29:35;;;;;;;5.75;1.67;;;20.60;86.60;;;;;;5074466;28;20031;-76
2023/09/24 12:32:00;;;;;;;6.05;1.92;;;20.60;86.70;;;;;;5074507;28;20044;-77
2023/09/24 12:34:26;;;;;;;13.50;2.60;;;20.60;86.70;;;;;;5074645;28;20543;-77
2023/09/24 12:36:51;;;;;;;7.45;1.80;;;20.60;86.60;;;;;;5073003;28;20469;-77
2023/09/24 12:39:19;;;;;;;8.90;1.50;;;20.70;86.60;;;;;;5073276;28;20033;-77
2023/09/24 12:41:46;;;;;;;6.90;2.00;;;20.70;86.50;;;;;;5074258;28;20024;-78
2023/09/24 12:44:12;;;;;;;6.35;1.75;;;20.70;86.50;;;;;;5073140;28;20051;-77
2023/09/24 12:46:37;;;;;;;8.10;1.48;;;20.60;86.50;;;;;;5073162;28;20473;-77
2023/09/24 12:49:03;;;;;;;7.05;1.60;;;20.60;86.60;;;;;;5073056;28;20024;-78